Sanliurfa, Turkey
Current Conditions -  °F | °C
As of 8:50 PM on Tuesday 27 Jan 2015 (Local Time) from LTCS Reporting Station
Clear Clear  
Wind Chill: 46°   Ceiling: Unl
Heat Index: 46°   Visibility: 6mi
Dew Point: 30°   Wind: 2mph
Humidity: 53%   Direction: 120°ESE
Pressure: 30.09"   Gusts: NA
Location:  37.15°N, 38.8°E
Report Text: LTCS 271850Z 12002KT CAVOK 08/M01 Q1019
Loading
Personal Weather Stations






























Interactive Weather Map New forecast layout! Learn more

10-Day Weather Forecast

Advertisements
Track Severe Weather on mobile